Time;durP1;ratioP1;P1;durP2;ratioP2;P2;SDS_P1;SDS_P2;PMS_P1;PMS_P2;Temp;Humidity;BMP_temperature;BMP_pressure;BME280_temperature;BME280_humidity;BME280_pressure;Samples;Min_cycle;Max_cycle;Signal;HPM_P1;HPM_P2
2023/07/19 00:02:27;;;;;;;0.30;0.30;;;;;;;17.78;52.64;97293.47;5049913;28;20049;-72
2023/07/19 00:04:55;;;;;;;0.00;0.00;;;;;;;17.63;53.00;97287.84;5086973;28;20389;-72
2023/07/19 00:07:22;;;;;;;0.15;0.15;;;;;;;17.54;53.38;97290.13;5087967;28;20040;-71
2023/07/19 00:09:50;;;;;;;0.15;0.15;;;;;;;17.65;53.03;97282.22;5062300;28;20558;-72
2023/07/19 00:12:18;;;;;;;0.32;0.32;;;;;;;17.64;52.71;97280.56;5085776;28;20052;-72
2023/07/19 00:14:45;;;;;;;0.15;0.15;;;;;;;17.60;52.76;97291.81;5089357;28;20647;-72
2023/07/19 00:17:13;;;;;;;0.30;0.30;;;;;;;17.61;52.74;97279.97;5077417;28;20183;-72
2023/07/19 00:19:42;;;;;;;0.20;0.20;;;;;;;17.47;53.11;97275.13;5063564;28;20051;-72
2023/07/19 00:22:10;;;;;;;0.20;0.20;;;;;;;17.63;52.56;97274.34;5073524;28;20036;-72
2023/07/19 00:24:37;;;;;;;0.20;0.20;;;;;;;17.50;53.13;97272.78;5071364;28;20041;-72
2023/07/19 00:27:06;;;;;;;0.25;0.25;;;;;;;17.32;53.85;97275.72;5061533;28;20028;-72
2023/07/19 00:29:34;;;;;;;0.30;0.30;;;;;;;17.25;53.79;97264.25;5049935;28;20490;-72
2023/07/19 00:32:04;;;;;;;0.20;0.20;;;;;;;17.40;53.25;97275.31;5075876;28;20039;-71
2023/07/19 00:34:32;;;;;;;0.20;0.20;;;;;;;17.30;53.96;97277.03;5050898;28;20047;-72
2023/07/19 00:37:01;;;;;;;0.38;0.38;;;;;;;17.19;54.30;97279.56;5086190;28;20389;-72
2023/07/19 00:39:29;;;;;;;0.20;0.20;;;;;;;17.34;53.54;97288.97;5051572;28;20516;-71
2023/07/19 00:41:57;;;;;;;0.32;0.32;;;;;;;17.11;54.29;97265.66;5074155;28;20516;-72
2023/07/19 00:44:27;;;;;;;0.20;0.20;;;;;;;17.19;53.81;97270.66;5070335;28;20116;-71
2023/07/19 00:46:55;;;;;;;0.30;0.30;;;;;;;17.20;54.21;97275.81;5062028;28;20428;-72
2023/07/19 00:49:23;;;;;;;0.10;0.10;;;;;;;16.99;54.89;97273.81;5055266;28;20409;-71
2023/07/19 00:51:52;;;;;;;0.20;0.20;;;;;;;16.94;54.79;97265.63;5063321;28;20055;-72
2023/07/19 00:54:22;;;;;;;0.20;0.20;;;;;;;16.90;55.25;97253.72;5055276;28;20098;-72
2023/07/19 00:56:50;;;;;;;0.20;0.20;;;;;;;17.01;54.96;97260.91;5071538;28;20143;-72
2023/07/19 00:59:18;;;;;;;0.22;0.22;;;;;;;17.04;54.47;97264.97;5086786;28;20044;-72
2023/07/19 01:01:46;;;;;;;0.32;0.32;;;;;;;16.93;55.38;97264.00;5062382;28;20048;-72
2023/07/19 01:04:14;;;;;;;0.30;0.30;;;;;;;16.70;56.03;97256.03;5067918;28;20036;-71
2023/07/19 01:06:42;;;;;;;0.30;0.30;;;;;;;16.57;56.68;97238.25;5084679;28;20468;-72
2023/07/19 01:09:11;;;;;;;0.28;0.28;;;;;;;16.76;55.94;97220.84;5063415;28;20063;-72
2023/07/19 01:11:41;;;;;;;0.10;0.10;;;;;;;16.77;56.09;97225.19;5085850;28;20322;-72
2023/07/19 01:14:08;;;;;;;0.28;0.28;;;;;;;16.43;57.21;97239.59;5064033;28;20495;-72
2023/07/19 01:16:36;;;;;;;0.17;0.17;;;;;;;16.18;58.09;97248.00;5090657;28;20055;-71
2023/07/19 01:19:04;;;;;;;0.10;0.10;;;;;;;16.15;58.12;97243.91;5087257;28;20114;-72
2023/07/19 01:21:32;;;;;;;0.10;0.10;;;;;;;16.05;58.64;97240.19;5086595;28;20418;-72
2023/07/19 01:24:01;;;;;;;0.30;0.30;;;;;;;16.09;58.63;97227.91;5064279;28;20131;-73
2023/07/19 01:26:29;;;;;;;0.30;0.30;;;;;;;16.25;58.22;97229.00;5085873;28;20075;-71
2023/07/19 01:28:58;;;;;;;0.25;0.25;;;;;;;16.35;57.71;97227.34;5064887;28;20093;-70
2023/07/19 01:31:27;;;;;;;0.30;0.30;;;;;;;16.65;56.61;97220.91;5088271;28;20032;-72
2023/07/19 01:33:54;;;;;;;0.20;0.20;;;;;;;16.53;56.37;97221.75;5063443;28;20044;-74
2023/07/19 01:36:22;;;;;;;0.20;0.20;;;;;;;16.59;56.19;97224.53;5065405;28;20044;-71
2023/07/19 01:38:50;;;;;;;0.08;0.08;;;;;;;16.32;56.38;97225.13;5065404;28;20486;-72
2023/07/19 01:41:19;;;;;;;0.15;0.15;;;;;;;16.38;56.26;97218.78;5065580;28;20431;-72
2023/07/19 01:43:47;;;;;;;0.40;0.40;;;;;;;16.39;56.03;97220.41;5066540;28;20470;-72
2023/07/19 01:46:16;;;;;;;0.30;0.30;;;;;;;16.36;56.19;97222.75;5089398;28;20060;-72
2023/07/19 01:48:44;;;;;;;0.10;0.10;;;;;;;16.39;56.41;97225.00;5062354;28;20504;-72
2023/07/19 01:51:11;;;;;;;0.28;0.28;;;;;;;16.31;56.92;97220.78;5064210;28;20051;-72
2023/07/19 01:53:42;;;;;;;0.10;0.10;;;;;;;16.40;56.54;97215.84;5066636;28;20435;-72
2023/07/19 01:56:09;;;;;;;0.38;0.38;;;;;;;16.59;56.17;97211.88;5060304;28;20127;-71
2023/07/19 01:58:38;;;;;;;0.30;0.30;;;;;;;16.58;56.33;97223.72;5058066;28;20153;-73
2023/07/19 02:01:06;;;;;;;0.28;0.28;;;;;;;16.53;56.49;97216.34;5081368;28;20123;-71
2023/07/19 02:03:34;;;;;;;0.30;0.30;;;;;;;16.51;56.27;97207.69;5080111;28;20490;-72
2023/07/19 02:06:01;;;;;;;0.28;0.28;;;;;;;16.56;56.29;97206.16;5080357;28;20089;-72
2023/07/19 02:08:29;;;;;;;0.20;0.20;;;;;;;16.61;56.22;97209.75;5060585;28;20066;-73
2023/07/19 02:10:57;;;;;;;0.20;0.20;;;;;;;16.55;56.60;97212.59;5065553;28;20040;-71
2023/07/19 02:13:25;;;;;;;0.20;0.20;;;;;;;16.48;56.81;97210.06;5067867;28;20050;-71
2023/07/19 02:15:54;;;;;;;0.30;0.30;;;;;;;16.50;56.22;97207.97;5055698;28;20036;-71
2023/07/19 02:18:22;;;;;;;0.38;0.38;;;;;;;16.48;56.34;97213.59;5061633;28;20044;-72
2023/07/19 02:20:53;;;;;;;0.20;0.20;;;;;;;16.49;56.50;97209.00;5088220;28;20082;-71
2023/07/19 02:23:23;;;;;;;0.20;0.20;;;;;;;16.48;56.46;97199.28;5070630;28;20028;-71
2023/07/19 02:25:51;;;;;;;0.28;0.28;;;;;;;16.55;56.39;97196.44;5074718;28;20046;-71
2023/07/19 02:28:20;;;;;;;0.30;0.30;;;;;;;16.63;56.23;97196.88;5068759;28;20065;-71
2023/07/19 02:30:48;;;;;;;0.28;0.28;;;;;;;16.46;56.88;97194.13;5054804;28;20080;-72
2023/07/19 02:33:17;;;;;;;0.00;0.00;;;;;;;16.65;56.27;97200.16;5065558;28;20570;-71
2023/07/19 02:35:45;;;;;;;0.13;0.13;;;;;;;16.70;55.99;97204.84;5070815;28;20120;-71
2023/07/19 02:38:13;;;;;;;0.30;0.30;;;;;;;16.59;56.03;97203.00;5078296;28;20448;-72
2023/07/19 02:40:41;;;;;;;0.40;0.40;;;;;;;16.47;56.57;97198.47;5088878;28;20568;-72
2023/07/19 02:43:10;;;;;;;0.20;0.20;;;;;;;16.55;56.47;97201.81;5083869;28;20562;-72
2023/07/19 02:45:39;;;;;;;0.20;0.20;;;;;;;16.35;56.89;97213.03;5069455;28;20037;-72
2023/07/19 02:48:06;;;;;;;0.30;0.30;;;;;;;16.41;56.86;97207.50;5070488;28;20704;-71
2023/07/19 02:50:35;;;;;;;0.20;0.20;;;;;;;16.31;56.90;97212.69;5068899;28;20036;-71
2023/07/19 02:53:03;;;;;;;0.28;0.28;;;;;;;16.23;56.86;97204.19;5065006;28;20135;-71
2023/07/19 02:55:31;;;;;;;0.30;0.30;;;;;;;16.13;57.28;97205.63;5060646;28;20044;-72
2023/07/19 02:57:59;;;;;;;0.30;0.30;;;;;;;16.14;57.32;97201.88;5089809;28;20552;-72
2023/07/19 03:00:27;;;;;;;0.30;0.30;;;;;;;16.03;57.45;97210.81;5054336;28;20047;-71
2023/07/19 03:02:55;;;;;;;0.25;0.25;;;;;;;16.06;57.32;97201.44;5050634;28;20082;-71
2023/07/19 03:05:24;;;;;;;0.30;0.30;;;;;;;16.14;57.14;97211.84;5054039;28;20037;-72
2023/07/19 03:07:53;;;;;;;0.40;0.40;;;;;;;16.05;57.53;97208.72;5049645;28;20047;-71
2023/07/19 03:10:20;;;;;;;0.22;0.22;;;;;;;15.83;58.23;97207.72;5060633;28;20524;-71
2023/07/19 03:12:48;;;;;;;0.22;0.22;;;;;;;15.90;58.10;97216.47;5063545;28;20094;-72
2023/07/19 03:15:16;;;;;;;0.22;0.22;;;;;;;16.01;57.52;97212.91;5043401;28;20041;-71
2023/07/19 03:17:44;;;;;;;0.20;0.20;;;;;;;16.00;57.87;97205.91;5056272;28;20069;-71
2023/07/19 03:20:12;;;;;;;0.30;0.30;;;;;;;16.07;57.62;97200.41;5055311;28;20139;-72
2023/07/19 03:22:40;;;;;;;0.22;0.22;;;;;;;16.17;57.06;97208.69;5059371;28;20048;-72
2023/07/19 03:25:10;;;;;;;0.20;0.20;;;;;;;16.13;57.40;97211.00;5048408;28;20041;-72
2023/07/19 03:27:38;;;;;;;0.35;0.35;;;;;;;16.21;57.22;97212.50;5071385;28;20459;-72
2023/07/19 03:30:06;;;;;;;0.40;0.40;;;;;;;16.09;57.68;97206.38;5057233;28;20073;-71
2023/07/19 03:32:34;;;;;;;0.20;0.20;;;;;;;16.16;57.39;97204.34;5061664;28;20055;-71
2023/07/19 03:35:02;;;;;;;0.20;0.20;;;;;;;16.21;57.18;97209.00;5063111;28;20051;-72
2023/07/19 03:37:30;;;;;;;0.20;0.20;;;;;;;16.24;57.16;97214.72;5086229;28;20390;-71
2023/07/19 03:39:58;;;;;;;0.45;0.45;;;;;;;16.20;57.23;97215.44;5062669;28;21011;-71
2023/07/19 03:42:27;;;;;;;0.13;0.13;;;;;;;16.25;57.27;97216.38;5048337;28;20575;-72
2023/07/19 03:44:55;;;;;;;0.28;0.28;;;;;;;16.16;57.39;97215.13;5056917;28;20124;-73
2023/07/19 03:47:24;;;;;;;0.30;0.30;;;;;;;16.17;57.34;97214.06;5061938;28;20044;-72
2023/07/19 03:49:54;;;;;;;0.17;0.17;;;;;;;16.34;56.84;97222.19;5062383;28;20059;-71
2023/07/19 03:52:22;;;;;;;0.10;0.10;;;;;;;16.25;57.13;97223.63;5064182;28;20389;-70
2023/07/19 03:54:50;;;;;;;0.20;0.20;;;;;;;16.16;57.40;97215.13;5044111;28;20072;-71
2023/07/19 03:57:19;;;;;;;0.20;0.20;;;;;;;16.04;57.79;97217.84;5060063;28;20390;-72
2023/07/19 03:59:48;;;;;;;0.20;0.20;;;;;;;16.03;58.14;97212.69;5056835;28;20050;-72
2023/07/19 04:02:16;;;;;;;0.20;0.20;;;;;;;16.04;58.06;97212.44;5066571;28;20127;-72
2023/07/19 04:04:43;;;;;;;0.25;0.25;;;;;;;16.11;57.67;97217.69;5054771;28;20049;-72
2023/07/19 04:07:11;;;;;;;0.35;0.35;;;;;;;16.21;57.45;97219.75;5061999;28;20040;-71
2023/07/19 04:09:39;;;;;;;0.32;0.32;;;;;;;16.35;57.02;97213.03;5062599;28;20162;-71
2023/07/19 04:12:08;;;;;;;0.30;0.30;;;;;;;16.28;57.25;97212.38;5054883;28;20130;-71
2023/07/19 04:14:35;;;;;;;0.20;0.20;;;;;;;16.04;57.94;97208.94;5054033;28;20037;-71
2023/07/19 04:17:05;;;;;;;0.82;0.82;;;;;;;16.19;57.56;97208.44;5051266;28;20052;-72
2023/07/19 04:19:33;;;;;;;0.30;0.30;;;;;;;16.28;57.18;97207.81;5062164;28;20097;-71
2023/07/19 04:22:01;;;;;;;0.28;0.28;;;;;;;16.18;57.44;97206.81;5054984;28;20551;-71
2023/07/19 04:24:30;;;;;;;0.22;0.22;;;;;;;16.30;57.30;97208.38;5053515;28;20045;-72
2023/07/19 04:26:57;;;;;;;0.30;0.30;;;;;;;16.45;56.71;97203.28;5060618;28;20644;-71
2023/07/19 04:29:25;;;;;;;0.30;0.30;;;;;;;16.63;55.99;97212.22;5041268;28;20045;-71
2023/07/19 04:31:53;;;;;;;0.32;0.32;;;;;;;16.71;55.72;97204.59;5051073;28;20048;-71
2023/07/19 04:34:22;;;;;;;0.20;0.20;;;;;;;16.69;55.55;97209.41;5067915;28;20045;-71
2023/07/19 04:36:50;;;;;;;0.32;0.32;;;;;;;16.60;55.73;97210.00;5084504;28;20064;-72
2023/07/19 04:39:18;;;;;;;0.10;0.10;;;;;;;16.56;55.50;97211.56;5072010;28;20045;-72
2023/07/19 04:41:46;;;;;;;0.30;0.30;;;;;;;16.61;55.70;97208.97;5052492;28;20045;-71
2023/07/19 04:44:17;;;;;;;0.30;0.30;;;;;;;16.74;55.50;97206.78;5043054;28;20127;-71
2023/07/19 04:46:46;;;;;;;0.20;0.20;;;;;;;16.82;54.99;97205.56;5068860;28;20075;-71
2023/07/19 04:49:15;;;;;;;0.32;0.32;;;;;;;16.82;54.95;97210.94;5058882;28;20048;-71
2023/07/19 04:51:45;;;;;;;0.30;0.30;;;;;;;16.94;54.93;97209.00;5066703;28;20051;-72
2023/07/19 04:54:13;;;;;;;0.20;0.20;;;;;;;17.06;54.65;97211.63;5074087;28;20110;-71
2023/07/19 04:56:41;;;;;;;0.25;0.25;;;;;;;17.12;54.17;97199.88;5047825;28;20040;-71
2023/07/19 04:59:09;;;;;;;0.40;0.40;;;;;;;17.06;54.56;97208.94;5073917;28;20120;-71
2023/07/19 05:01:36;;;;;;;0.30;0.30;;;;;;;17.10;54.33;97202.81;5066192;28;20044;-71
2023/07/19 05:04:05;;;;;;;0.30;0.30;;;;;;;17.06;54.38;97208.94;5070253;28;20048;-72
2023/07/19 05:06:33;;;;;;;0.22;0.22;;;;;;;17.22;54.31;97202.72;5070088;28;20479;-71
2023/07/19 05:09:03;;;;;;;0.28;0.28;;;;;;;17.23;53.91;97202.47;5077057;28;20910;-71
2023/07/19 05:11:31;;;;;;;0.22;0.22;;;;;;;17.30;54.09;97198.78;5051543;28;20501;-72
2023/07/19 05:13:59;;;;;;;0.30;0.30;;;;;;;17.38;53.94;97199.19;5051718;28;20066;-72
2023/07/19 05:16:27;;;;;;;0.10;0.10;;;;;;;17.37;54.01;97204.81;5047642;28;20395;-72
2023/07/19 05:18:55;;;;;;;0.22;0.22;;;;;;;17.29;54.08;97197.16;5050275;28;20092;-72
2023/07/19 05:21:24;;;;;;;0.20;0.20;;;;;;;17.39;53.98;97198.13;5061982;28;20548;-71
2023/07/19 05:23:52;;;;;;;0.20;0.20;;;;;;;17.49;53.65;97192.06;5060898;28;20044;-72
2023/07/19 05:26:21;;;;;;;0.10;0.10;;;;;;;17.44;53.80;97194.69;5066166;28;20408;-71
2023/07/19 05:28:49;;;;;;;0.22;0.22;;;;;;;17.56;53.57;97196.19;5068951;28;20048;-71
2023/07/19 05:31:16;;;;;;;0.20;0.20;;;;;;;17.61;53.34;97187.38;5084172;28;20044;-71
2023/07/19 05:33:44;;;;;;;0.22;0.22;;;;;;;17.73;52.93;97190.00;5082383;28;20565;-71
2023/07/19 05:36:12;;;;;;;0.22;0.22;;;;;;;17.84;52.64;97192.56;5082350;28;20524;-71
2023/07/19 05:38:40;;;;;;;0.20;0.20;;;;;;;17.83;52.83;97190.13;5078477;28;20062;-71
2023/07/19 05:41:08;;;;;;;0.30;0.30;;;;;;;17.93;52.71;97182.16;5080499;28;20040;-73
2023/07/19 05:43:37;;;;;;;0.03;0.03;;;;;;;18.05;52.40;97184.72;5081585;28;20714;-71
2023/07/19 05:46:05;;;;;;;0.20;0.20;;;;;;;18.16;52.31;97178.38;5079884;28;20405;-71
2023/07/19 05:48:33;;;;;;;0.20;0.20;;;;;;;18.24;51.82;97186.84;5090136;28;20055;-71
2023/07/19 05:51:02;;;;;;;0.20;0.20;;;;;;;18.27;51.92;97178.19;5071449;28;20115;-71
2023/07/19 05:53:30;;;;;;;0.30;0.30;;;;;;;18.29;51.70;97184.19;5083178;28;20040;-71
2023/07/19 05:55:58;;;;;;;0.20;0.20;;;;;;;18.41;51.58;97184.03;5086502;28;20043;-71
2023/07/19 05:58:27;;;;;;;0.20;0.20;;;;;;;18.51;51.33;97186.03;5084493;28;20040;-71
2023/07/19 06:00:56;;;;;;;0.20;0.20;;;;;;;18.65;50.83;97182.69;5079598;28;20489;-71
2023/07/19 06:03:24;;;;;;;0.20;0.20;;;;;;;18.80;50.87;97175.78;5085186;28;20493;-71
2023/07/19 06:05:52;;;;;;;0.30;0.30;;;;;;;18.88;50.53;97180.72;5085372;28;20058;-71
2023/07/19 06:08:20;;;;;;;0.30;0.30;;;;;;;18.79;50.90;97177.66;5084383;28;20040;-71
2023/07/19 06:10:52;;;;;;;;;;;;;;;18.94;50.83;97174.28;5085813;28;20047;-71
2023/07/19 06:13:20;;;;;;;0.20;0.20;;;;;;;19.03;50.34;97165.44;5084584;28;20385;-71
2023/07/19 06:15:48;;;;;;;0.30;0.30;;;;;;;19.18;50.32;97172.84;5084797;28;20110;-71
2023/07/19 06:18:17;;;;;;;0.20;0.20;;;;;;;19.33;49.76;97182.94;5085259;28;20040;-71
2023/07/19 06:20:46;;;;;;;0.22;0.22;;;;;;;19.49;49.75;97170.38;5084714;28;20052;-73
2023/07/19 06:23:14;;;;;;;0.30;0.30;;;;;;;19.63;49.34;97164.22;5085004;28;20055;-71
2023/07/19 06:25:42;;;;;;;0.10;0.10;;;;;;;19.67;49.17;97164.50;5083721;28;20052;-71
2023/07/19 06:28:10;;;;;;;0.20;0.20;;;;;;;19.75;49.46;97166.72;5085805;28;20043;-73
2023/07/19 06:30:37;;;;;;;0.20;0.20;;;;;;;19.88;49.06;97171.66;5083523;28;20185;-73
2023/07/19 06:33:05;;;;;;;0.10;0.10;;;;;;;19.97;48.23;97167.34;5084885;28;20370;-71
2023/07/19 06:35:34;;;;;;;0.20;0.20;;;;;;;20.12;48.46;97155.78;5084196;28;20047;-73
2023/07/19 06:38:02;;;;;;;0.30;0.30;;;;;;;20.19;47.95;97156.31;5085052;28;20097;-72
2023/07/19 06:40:30;;;;;;;0.20;0.20;;;;;;;20.16;47.40;97151.44;5084799;28;20058;-72
2023/07/19 06:42:57;;;;;;;0.20;0.20;;;;;;;20.21;47.57;97153.34;5078645;28;20035;-73
2023/07/19 06:45:25;;;;;;;0.30;0.30;;;;;;;20.34;47.46;97153.66;5058818;28;20040;-71
2023/07/19 06:47:53;;;;;;;0.20;0.20;;;;;;;20.44;47.12;97145.59;5083209;28;20035;-71
2023/07/19 06:50:21;;;;;;;0.20;0.20;;;;;;;20.52;46.79;97150.47;5052811;28;20409;-71
2023/07/19 06:52:50;;;;;;;0.10;0.10;;;;;;;20.60;46.68;97143.69;5062191;28;20556;-70
2023/07/19 06:55:18;;;;;;;0.20;0.20;;;;;;;20.73;46.77;97150.50;5076453;28;20044;-71
2023/07/19 06:57:45;;;;;;;0.20;0.20;;;;;;;20.81;45.94;97142.63;5087981;28;20044;-71
2023/07/19 07:00:14;;;;;;;0.25;0.25;;;;;;;20.96;46.14;97141.00;5063665;28;20037;-71
2023/07/19 07:02:41;;;;;;;0.20;0.20;;;;;;;21.17;45.57;97151.59;5072126;28;20066;-71
2023/07/19 07:05:10;;;;;;;0.30;0.30;;;;;;;21.28;45.42;97146.97;5076925;28;20036;-71
2023/07/19 07:07:39;;;;;;;0.20;0.20;;;;;;;21.28;44.72;97143.44;5077177;28;20047;-71
2023/07/19 07:10:09;;;;;;;0.20;0.20;;;;;;;21.42;44.56;97137.16;5085072;28;20048;-71
2023/07/19 07:12:37;;;;;;;0.17;0.17;;;;;;;21.57;44.22;97137.13;5082275;28;20045;-70
2023/07/19 07:15:06;;;;;;;0.50;0.50;;;;;;;21.67;44.24;97140.91;5086012;28;20480;-71
2023/07/19 07:17:34;;;;;;;0.20;0.20;;;;;;;21.75;44.38;97146.56;5080836;28;20553;-71
2023/07/19 07:20:01;;;;;;;0.10;0.10;;;;;;;21.83;44.24;97142.47;5080822;28;20037;-71
2023/07/19 07:22:29;;;;;;;0.10;0.10;;;;;;;22.04;44.09;97143.22;5080496;28;20102;-71
2023/07/19 07:24:57;;;;;;;0.10;0.10;;;;;;;22.24;43.22;97146.66;5083495;28;20044;-71
2023/07/19 07:27:27;;;;;;;0.10;0.10;;;;;;;22.49;42.98;97147.59;5081787;28;20051;-71
2023/07/19 07:29:55;;;;;;;0.20;0.20;;;;;;;22.76;42.50;97147.97;5077128;28;20087;-71
2023/07/19 07:32:23;;;;;;;0.20;0.20;;;;;;;22.94;41.87;97144.59;5082962;28;20097;-71
2023/07/19 07:34:51;;;;;;;0.10;0.10;;;;;;;23.05;41.25;97142.56;5083144;28;20044;-71
2023/07/19 07:37:18;;;;;;;0.25;0.25;;;;;;;23.10;41.20;97131.66;5084547;28;20045;-71
2023/07/19 07:39:46;;;;;;;0.28;0.28;;;;;;;23.15;40.84;97138.97;5082287;28;20072;-71
2023/07/19 07:42:14;;;;;;;0.20;0.20;;;;;;;23.32;40.29;97140.16;5083229;28;20059;-70
2023/07/19 07:44:43;;;;;;;0.20;0.20;;;;;;;23.57;39.71;97139.09;5080981;28;20519;-71
2023/07/19 07:47:14;;;;;;;0.10;0.10;;;;;;;23.78;40.23;97131.50;5082426;28;20493;-71
2023/07/19 07:49:42;;;;;;;0.20;0.20;;;;;;;23.93;39.26;97135.97;5078811;28;20119;-71
2023/07/19 07:52:11;;;;;;;0.20;0.20;;;;;;;24.06;38.49;97125.19;5078070;28;20036;-71
2023/07/19 07:54:39;;;;;;;0.10;0.10;;;;;;;24.28;37.88;97123.81;5066360;28;20124;-70
2023/07/19 07:57:07;;;;;;;0.15;0.15;;;;;;;24.46;37.48;97117.56;5081902;28;20405;-71
2023/07/19 07:59:35;;;;;;;0.20;0.20;;;;;;;24.49;37.05;97122.44;5085316;28;20035;-71
2023/07/19 08:02:04;;;;;;;0.17;0.17;;;;;;;24.49;37.86;97115.06;5077754;28;20092;-71
2023/07/19 08:04:33;;;;;;;0.10;0.10;;;;;;;24.38;37.34;97110.84;5081782;28;20044;-71
2023/07/19 08:07:00;;;;;;;0.20;0.20;;;;;;;24.50;37.49;97107.69;5079418;28;20072;-71
2023/07/19 08:09:28;;;;;;;0.13;0.13;;;;;;;24.75;37.59;97101.00;5086049;28;20473;-71
2023/07/19 08:11:57;;;;;;;0.20;0.20;;;;;;;24.98;36.75;97105.56;5079553;28;20036;-71
2023/07/19 08:14:24;;;;;;;0.20;0.20;;;;;;;25.03;36.23;97100.00;5085919;28;20032;-71
2023/07/19 08:16:54;;;;;;;0.20;0.20;;;;;;;24.99;35.71;97095.44;5079353;28;20075;-71
2023/07/19 08:19:23;;;;;;;0.13;0.13;;;;;;;24.99;35.75;97100.91;5086431;28;20040;-71
2023/07/19 08:21:51;;;;;;;0.25;0.25;;;;;;;24.87;36.33;97095.88;5079579;28;20041;-71
2023/07/19 08:24:19;;;;;;;0.20;0.20;;;;;;;24.63;36.80;97104.19;5079961;28;20139;-71
2023/07/19 08:26:46;;;;;;;0.20;0.20;;;;;;;24.72;36.06;97101.59;5086222;28;20115;-71
2023/07/19 08:29:14;;;;;;;0.10;0.10;;;;;;;24.78;34.46;97106.69;5079141;28;20055;-71
2023/07/19 08:31:42;;;;;;;0.20;0.20;;;;;;;24.87;34.72;97106.81;5086596;28;20055;-73
2023/07/19 08:34:10;;;;;;;0.10;0.10;;;;;;;25.02;34.59;97106.56;5078763;28;20041;-70
2023/07/19 08:36:39;;;;;;;0.10;0.10;;;;;;;25.04;34.12;97106.28;5086979;28;20051;-71
2023/07/19 08:39:07;;;;;;;0.20;0.20;;;;;;;25.17;34.17;97105.50;5073427;28;20065;-71
2023/07/19 08:41:36;;;;;;;0.20;0.20;;;;;;;25.38;34.25;97105.94;5053683;28;20040;-70
2023/07/19 08:44:04;;;;;;;0.10;0.10;;;;;;;25.61;32.82;97107.72;5074248;28;20808;-72
2023/07/19 08:46:33;;;;;;;0.10;0.10;;;;;;;25.55;33.07;97090.56;5079590;28;20062;-71
2023/07/19 08:49:02;;;;;;;0.15;0.15;;;;;;;25.86;32.84;97100.91;5078797;28;20048;-71
2023/07/19 08:51:32;;;;;;;0.20;0.20;;;;;;;26.00;32.42;97104.47;5051710;28;20087;-71
2023/07/19 08:54:01;;;;;;;0.15;0.15;;;;;;;25.94;32.59;97092.00;5082321;28;20040;-70
2023/07/19 08:56:31;;;;;;;0.17;0.17;;;;;;;26.17;32.48;97082.72;5082043;28;20047;-70
2023/07/19 08:58:58;;;;;;;0.10;0.10;;;;;;;26.36;32.09;97087.28;5083178;28;20130;-71
2023/07/19 09:01:26;;;;;;;0.00;0.00;;;;;;;26.50;31.49;97090.78;5084762;28;20706;-72
2023/07/19 09:03:54;;;;;;;0.10;0.10;;;;;;;26.72;31.34;97093.53;5084771;28;20040;-72
2023/07/19 09:06:25;;;;;;;0.10;0.10;;;;;;;26.86;30.95;97088.81;5090131;28;20235;-72
2023/07/19 09:08:55;;;;;;;0.10;0.10;;;;;;;27.05;30.68;97088.66;5085556;28;20040;-72
2023/07/19 09:11:24;;;;;;;0.10;0.10;;;;;;;27.33;30.18;97095.56;5086213;28;20055;-72
2023/07/19 09:13:53;;;;;;;0.10;0.10;;;;;;;27.22;30.08;97090.66;5084885;28;20439;-72
2023/07/19 09:16:27;;;;;;;0.10;0.10;;;;;;;27.02;30.50;97090.06;5086500;28;20556;-70
2023/07/19 09:18:54;;;;;;;0.13;0.13;;;;;;;26.98;31.07;97094.56;5087876;28;20059;-70
2023/07/19 09:21:37;;;;;;;0.10;0.10;;;;;;;27.10;30.18;97095.94;5086502;28;20032;-71
2023/07/19 09:24:05;;;;;;;0.10;0.10;;;;;;;27.15;30.02;97098.53;5081971;28;20055;-71
2023/07/19 09:26:50;;;;;;;0.10;0.10;;;;;;;27.14;30.24;97097.72;5089534;28;20110;-71
2023/07/19 09:29:18;;;;;;;0.17;0.17;;;;;;;27.14;30.94;97091.44;5083161;28;20039;-71
2023/07/19 09:31:54;;;;;;;0.10;0.10;;;;;;;26.85;30.97;97089.94;5090791;28;20129;-71
2023/07/19 09:34:23;;;;;;;0.10;0.10;;;;;;;26.40;31.01;97080.88;5082782;28;20043;-71
2023/07/19 09:36:52;;;;;;;0.10;0.10;;;;;;;26.55;31.51;97086.00;5091476;28;20040;-71
2023/07/19 09:39:20;;;;;;;0.00;0.00;;;;;;;26.78;31.38;97084.09;5082900;28;20447;-71
2023/07/19 09:41:49;;;;;;;0.10;0.10;;;;;;;26.70;31.18;97076.59;5085987;28;20040;-70
2023/07/19 09:44:17;;;;;;;0.10;0.10;;;;;;;26.84;31.05;97077.34;5085751;28;20083;-71
2023/07/19 09:46:46;;;;;;;0.20;0.20;;;;;;;27.07;31.04;97075.44;5085146;28;20101;-70
2023/07/19 09:49:14;;;;;;;0.08;0.08;;;;;;;27.15;30.43;97071.94;5086287;28;20119;-71
2023/07/19 09:51:43;;;;;;;0.17;0.17;;;;;;;27.53;30.16;97066.78;5076320;28;20044;-71
2023/07/19 09:54:12;;;;;;;0.10;0.10;;;;;;;27.87;29.74;97057.88;5080721;28;20048;-71
2023/07/19 09:56:41;;;;;;;0.00;0.00;;;;;;;28.19;29.64;97064.09;5077411;28;20494;-71
2023/07/19 09:59:12;;;;;;;0.10;0.10;;;;;;;27.96;28.89;97049.66;5086128;28;20036;-72
2023/07/19 10:01:40;;;;;;;0.10;0.10;;;;;;;27.92;29.28;97046.78;5084959;28;20050;-72
2023/07/19 10:04:24;;;;;;;0.10;0.10;;;;;;;27.84;29.42;97050.28;5085187;28;20067;-72
2023/07/19 10:07:03;;;;;;;0.10;0.10;;;;;;;27.46;29.99;97054.66;5082094;28;20032;-72
2023/07/19 10:09:32;;;;;;;0.10;0.10;;;;;;;27.47;30.44;97043.38;5088196;28;20036;-71
2023/07/19 10:12:00;;;;;;;0.20;0.20;;;;;;;27.54;29.99;97042.91;5082090;28;20059;-73
2023/07/19 10:14:30;;;;;;;0.00;0.00;;;;;;;27.54;29.74;97037.41;5088655;28;20378;-70
2023/07/19 10:17:03;;;;;;;0.10;0.10;;;;;;;27.48;29.95;97028.53;5081867;28;20039;-72
2023/07/19 10:19:32;;;;;;;0.00;0.00;;;;;;;27.50;30.07;97029.03;5089673;28;20447;-73
2023/07/19 10:22:04;;;;;;;0.10;0.10;;;;;;;27.62;30.20;97020.22;5081478;28;20047;-72
2023/07/19 10:24:32;;;;;;;0.10;0.10;;;;;;;27.60;29.99;97023.28;5081604;28;20040;-72
2023/07/19 10:27:02;;;;;;;0.10;0.10;;;;;;;27.65;29.93;97016.84;5087205;28;20033;-72
2023/07/19 10:29:44;;;;;;;0.08;0.08;;;;;;;27.56;30.06;97021.50;5081892;28;20061;-72
2023/07/19 10:32:12;;;;;;;0.10;0.10;;;;;;;27.57;29.87;97028.59;5086228;28;20036;-70
2023/07/19 10:34:44;;;;;;;0.20;0.20;;;;;;;27.54;30.36;97013.56;5083058;28;20416;-70
2023/07/19 10:37:13;;;;;;;0.10;0.10;;;;;;;27.29;30.32;97014.28;5086183;28;20102;-71
2023/07/19 10:39:41;;;;;;;0.10;0.10;;;;;;;27.30;30.58;97022.19;5082185;28;20079;-72
2023/07/19 10:42:08;;;;;;;0.20;0.20;;;;;;;27.32;30.61;97025.41;5083719;28;20105;-71
2023/07/19 10:44:36;;;;;;;0.10;0.10;;;;;;;27.27;30.41;97022.81;5082356;28;20049;-71
2023/07/19 10:47:06;;;;;;;0.10;0.10;;;;;;;27.16;30.78;97029.72;5082144;22;20031;-72
2023/07/19 10:49:33;;;;;;;0.10;0.10;;;;;;;27.17;30.77;97014.88;5036296;28;20037;-73
2023/07/19 10:52:01;;;;;;;0.30;0.30;;;;;;;27.09;30.90;97023.06;5035195;28;20451;-73
2023/07/19 10:54:29;;;;;;;0.20;0.20;;;;;;;26.84;30.92;97019.84;5038530;28;20046;-73
2023/07/19 10:57:22;;;;;;;0.20;0.20;;;;;;;26.84;31.18;97016.28;5035885;28;20058;-73
2023/07/19 10:59:51;;;;;;;0.10;0.10;;;;;;;26.87;31.60;97010.19;5061172;28;20043;-73
2023/07/19 11:02:21;;;;;;;0.00;0.00;;;;;;;26.87;31.16;97021.16;5061101;28;20079;-73
2023/07/19 11:04:49;;;;;;;0.10;0.10;;;;;;;26.85;31.22;97015.97;5059119;28;20045;-73
2023/07/19 11:07:18;;;;;;;0.03;0.03;;;;;;;26.69;31.31;97014.72;5057877;28;20117;-73
2023/07/19 11:09:49;;;;;;;0.10;0.10;;;;;;;26.61;31.88;97008.09;5058587;28;20120;-73
2023/07/19 11:12:17;;;;;;;0.10;0.10;;;;;;;26.71;31.37;97011.69;5057488;28;20048;-73
2023/07/19 11:14:56;;;;;;;0.10;0.10;;;;;;;26.69;32.06;97014.72;5057374;28;20124;-73
2023/07/19 11:17:25;;;;;;;0.10;0.10;;;;;;;26.71;31.89;97006.22;5064727;28;20049;-72
2023/07/19 11:19:53;;;;;;;0.10;0.10;;;;;;;26.61;31.62;96999.88;5048421;28;20041;-73
2023/07/19 11:22:21;;;;;;;0.10;0.10;;;;;;;26.64;31.86;97007.47;5052938;28;20119;-73
2023/07/19 11:24:51;;;;;;;0.10;0.10;;;;;;;26.54;31.85;97002.25;5052972;28;20087;-73
2023/07/19 11:27:19;;;;;;;0.15;0.15;;;;;;;26.70;31.93;97010.88;5054048;28;20071;-74
2023/07/19 11:29:49;;;;;;;0.10;0.10;;;;;;;26.63;31.48;97010.50;5044946;28;20053;-72
2023/07/19 11:32:20;;;;;;;0.10;0.10;;;;;;;26.69;31.41;97007.31;5054668;28;20041;-73
2023/07/19 11:34:51;;;;;;;0.10;0.10;;;;;;;26.73;31.73;97002.03;5052743;28;20057;-72
2023/07/19 11:37:20;;;;;;;0.10;0.10;;;;;;;26.72;31.59;97008.63;5053099;28;20060;-73
2023/07/19 11:39:49;;;;;;;0.20;0.20;;;;;;;26.78;31.39;97001.13;5043096;28;21400;-73
2023/07/19 11:42:41;;;;;;;0.20;0.20;;;;;;;26.50;31.41;96998.50;5044994;28;20409;-73